sensor_id;sensor_type;location;lat;lon;timestamp;temperature;humidity
9837;DHT22;4957;51.412;6.724;2024-02-15T00:00:59;12.80;99.90
9837;DHT22;4957;51.412;6.724;2024-02-15T00:03:25;12.80;99.90
9837;DHT22;4957;51.412;6.724;2024-02-15T00:05:51;12.80;99.90
9837;DHT22;4957;51.412;6.724;2024-02-15T00:08:16;12.80;99.90
9837;DHT22;4957;51.412;6.724;2024-02-15T00:10:42;12.80;99.90
9837;DHT22;4957;51.412;6.724;2024-02-15T00:13:08;12.80;99.90
9837;DHT22;4957;51.412;6.724;2024-02-15T00:15:33;12.80;99.90
9837;DHT22;4957;51.412;6.724;2024-02-15T00:18:00;12.80;99.90
9837;DHT22;4957;51.412;6.724;2024-02-15T00:20:25;12.80;99.90
9837;DHT22;4957;51.412;6.724;2024-02-15T00:22:51;12.80;99.90
9837;DHT22;4957;51.412;6.724;2024-02-15T00:25:18;12.80;99.90
9837;DHT22;4957;51.412;6.724;2024-02-15T00:27:45;12.80;99.90
9837;DHT22;4957;51.412;6.724;2024-02-15T00:30:11;12.80;99.90
9837;DHT22;4957;51.412;6.724;2024-02-15T00:32:36;12.80;99.90
9837;DHT22;4957;51.412;6.724;2024-02-15T00:35:06;12.80;99.90
9837;DHT22;4957;51.412;6.724;2024-02-15T00:37:33;12.80;99.90
9837;DHT22;4957;51.412;6.724;2024-02-15T00:39:59;12.90;99.90
9837;DHT22;4957;51.412;6.724;2024-02-15T00:42:25;12.80;99.90
9837;DHT22;4957;51.412;6.724;2024-02-15T00:44:51;12.80;99.90
9837;DHT22;4957;51.412;6.724;2024-02-15T00:47:17;12.80;99.90
9837;DHT22;4957;51.412;6.724;2024-02-15T00:49:45;12.90;99.90
9837;DHT22;4957;51.412;6.724;2024-02-15T00:52:11;12.80;99.90
9837;DHT22;4957;51.412;6.724;2024-02-15T00:54:36;12.80;99.90
9837;DHT22;4957;51.412;6.724;2024-02-15T00:57:02;12.80;99.90
9837;DHT22;4957;51.412;6.724;2024-02-15T00:59:28;12.80;99.90
9837;DHT22;4957;51.412;6.724;2024-02-15T01:01:53;12.80;99.90
9837;DHT22;4957;51.412;6.724;2024-02-15T01:04:20;12.80;99.90
9837;DHT22;4957;51.412;6.724;2024-02-15T01:06:45;12.90;99.90
9837;DHT22;4957;51.412;6.724;2024-02-15T01:09:11;12.80;99.90
9837;DHT22;4957;51.412;6.724;2024-02-15T01:11:38;12.90;99.90
9837;DHT22;4957;51.412;6.724;2024-02-15T01:14:04;12.90;99.90
9837;DHT22;4957;51.412;6.724;2024-02-15T01:16:30;12.90;99.90
9837;DHT22;4957;51.412;6.724;2024-02-15T01:18:56;12.80;99.90
9837;DHT22;4957;51.412;6.724;2024-02-15T01:21:21;12.80;99.90
9837;DHT22;4957;51.412;6.724;2024-02-15T01:23:50;12.80;99.90
9837;DHT22;4957;51.412;6.724;2024-02-15T01:26:16;12.90;99.90
9837;DHT22;4957;51.412;6.724;2024-02-15T01:28:41;12.90;99.90
9837;DHT22;4957;51.412;6.724;2024-02-15T01:31:09;12.80;99.90
9837;DHT22;4957;51.412;6.724;2024-02-15T01:33:39;12.80;99.90
9837;DHT22;4957;51.412;6.724;2024-02-15T01:36:05;12.90;99.90
9837;DHT22;4957;51.412;6.724;2024-02-15T01:38:31;12.80;99.90
9837;DHT22;4957;51.412;6.724;2024-02-15T01:40:56;12.80;99.90
9837;DHT22;4957;51.412;6.724;2024-02-15T01:43:22;12.90;99.90
9837;DHT22;4957;51.412;6.724;2024-02-15T01:45:48;12.80;99.90
9837;DHT22;4957;51.412;6.724;2024-02-15T01:48:15;12.80;99.90
9837;DHT22;4957;51.412;6.724;2024-02-15T01:50:41;12.80;99.90
9837;DHT22;4957;51.412;6.724;2024-02-15T01:53:09;12.80;99.90
9837;DHT22;4957;51.412;6.724;2024-02-15T01:55:35;12.80;99.90
9837;DHT22;4957;51.412;6.724;2024-02-15T01:58:01;12.80;99.90
9837;DHT22;4957;51.412;6.724;2024-02-15T02:00:28;12.80;99.90
9837;DHT22;4957;51.412;6.724;2024-02-15T02:02:57;12.80;99.90
9837;DHT22;4957;51.412;6.724;2024-02-15T02:05:27;12.80;99.90
9837;DHT22;4957;51.412;6.724;2024-02-15T02:07:56;12.80;99.90
9837;DHT22;4957;51.412;6.724;2024-02-15T02:10:27;12.80;99.90
9837;DHT22;4957;51.412;6.724;2024-02-15T02:12:58;12.80;99.90
9837;DHT22;4957;51.412;6.724;2024-02-15T02:15:24;12.80;99.90
9837;DHT22;4957;51.412;6.724;2024-02-15T02:17:50;12.80;99.90
9837;DHT22;4957;51.412;6.724;2024-02-15T02:20:19;12.80;99.90
9837;DHT22;4957;51.412;6.724;2024-02-15T02:22:48;12.80;99.90
9837;DHT22;4957;51.412;6.724;2024-02-15T02:25:16;12.80;99.90
9837;DHT22;4957;51.412;6.724;2024-02-15T02:27:42;12.80;99.90
9837;DHT22;4957;51.412;6.724;2024-02-15T02:30:15;12.80;99.90
9837;DHT22;4957;51.412;6.724;2024-02-15T02:32:46;12.80;99.90
9837;DHT22;4957;51.412;6.724;2024-02-15T02:35:12;12.80;99.90
9837;DHT22;4957;51.412;6.724;2024-02-15T02:37:39;12.80;99.90
9837;DHT22;4957;51.412;6.724;2024-02-15T02:40:05;12.80;99.90
9837;DHT22;4957;51.412;6.724;2024-02-15T02:42:36;12.80;99.90
9837;DHT22;4957;51.412;6.724;2024-02-15T02:45:01;12.80;99.90
9837;DHT22;4957;51.412;6.724;2024-02-15T02:47:27;12.80;99.90
9837;DHT22;4957;51.412;6.724;2024-02-15T02:49:53;12.80;99.90
9837;DHT22;4957;51.412;6.724;2024-02-15T02:52:18;12.80;99.90
9837;DHT22;4957;51.412;6.724;2024-02-15T02:54:44;12.80;99.90
9837;DHT22;4957;51.412;6.724;2024-02-15T02:57:10;12.80;99.90
9837;DHT22;4957;51.412;6.724;2024-02-15T02:59:35;12.80;99.90
9837;DHT22;4957;51.412;6.724;2024-02-15T03:02:02;12.80;99.90
9837;DHT22;4957;51.412;6.724;2024-02-15T03:04:29;12.80;99.90
9837;DHT22;4957;51.412;6.724;2024-02-15T03:06:55;12.80;99.90
9837;DHT22;4957;51.412;6.724;2024-02-15T03:09:22;12.80;99.90
9837;DHT22;4957;51.412;6.724;2024-02-15T03:11:48;12.80;99.90
9837;DHT22;4957;51.412;6.724;2024-02-15T03:14:15;12.80;99.90
9837;DHT22;4957;51.412;6.724;2024-02-15T03:16:40;12.80;99.90
9837;DHT22;4957;51.412;6.724;2024-02-15T03:19:06;12.80;99.90
9837;DHT22;4957;51.412;6.724;2024-02-15T03:21:34;12.80;99.90
9837;DHT22;4957;51.412;6.724;2024-02-15T03:24:00;12.80;99.90
9837;DHT22;4957;51.412;6.724;2024-02-15T03:26:32;12.80;99.90
9837;DHT22;4957;51.412;6.724;2024-02-15T03:29:03;12.80;99.90
9837;DHT22;4957;51.412;6.724;2024-02-15T03:31:28;12.80;99.90
9837;DHT22;4957;51.412;6.724;2024-02-15T03:33:57;12.80;99.90
9837;DHT22;4957;51.412;6.724;2024-02-15T03:36:22;12.80;99.90
9837;DHT22;4957;51.412;6.724;2024-02-15T03:38:48;12.80;99.90
9837;DHT22;4957;51.412;6.724;2024-02-15T03:41:14;12.80;99.90
9837;DHT22;4957;51.412;6.724;2024-02-15T03:43:40;12.80;99.90
9837;DHT22;4957;51.412;6.724;2024-02-15T03:46:05;12.80;99.90
9837;DHT22;4957;51.412;6.724;2024-02-15T03:48:38;12.80;99.90
9837;DHT22;4957;51.412;6.724;2024-02-15T03:51:03;12.80;99.90
9837;DHT22;4957;51.412;6.724;2024-02-15T03:53:29;12.80;99.90
9837;DHT22;4957;51.412;6.724;2024-02-15T03:55:56;12.80;99.90
9837;DHT22;4957;51.412;6.724;2024-02-15T03:58:22;12.80;99.90
9837;DHT22;4957;51.412;6.724;2024-02-15T04:00:48;12.70;99.90
9837;DHT22;4957;51.412;6.724;2024-02-15T04:03:14;12.80;99.90
9837;DHT22;4957;51.412;6.724;2024-02-15T04:05:39;12.70;99.90
9837;DHT22;4957;51.412;6.724;2024-02-15T04:08:05;12.80;99.90
9837;DHT22;4957;51.412;6.724;2024-02-15T04:10:31;12.70;99.90
9837;DHT22;4957;51.412;6.724;2024-02-15T04:12:56;12.70;99.90
9837;DHT22;4957;51.412;6.724;2024-02-15T04:15:23;12.80;99.90
9837;DHT22;4957;51.412;6.724;2024-02-15T04:17:49;12.70;99.90
9837;DHT22;4957;51.412;6.724;2024-02-15T04:20:22;12.70;99.90
9837;DHT22;4957;51.412;6.724;2024-02-15T04:22:47;12.70;99.90
9837;DHT22;4957;51.412;6.724;2024-02-15T04:25:15;12.70;99.90
9837;DHT22;4957;51.412;6.724;2024-02-15T04:27:48;12.70;99.90
9837;DHT22;4957;51.412;6.724;2024-02-15T04:30:15;12.70;99.90
9837;DHT22;4957;51.412;6.724;2024-02-15T04:32:43;12.70;99.90
9837;DHT22;4957;51.412;6.724;2024-02-15T04:35:09;12.70;99.90
9837;DHT22;4957;51.412;6.724;2024-02-15T04:37:35;12.70;99.90
9837;DHT22;4957;51.412;6.724;2024-02-15T04:40:03;12.70;99.90
9837;DHT22;4957;51.412;6.724;2024-02-15T04:42:36;12.70;99.90
9837;DHT22;4957;51.412;6.724;2024-02-15T04:45:05;12.70;99.90
9837;DHT22;4957;51.412;6.724;2024-02-15T04:47:35;12.70;99.90
9837;DHT22;4957;51.412;6.724;2024-02-15T04:50:01;12.60;99.90
9837;DHT22;4957;51.412;6.724;2024-02-15T04:52:27;12.70;99.90
9837;DHT22;4957;51.412;6.724;2024-02-15T04:54:53;12.70;99.90
9837;DHT22;4957;51.412;6.724;2024-02-15T04:57:24;12.60;99.90
9837;DHT22;4957;51.412;6.724;2024-02-15T04:59:51;12.60;99.90
9837;DHT22;4957;51.412;6.724;2024-02-15T05:02:16;12.60;99.90
9837;DHT22;4957;51.412;6.724;2024-02-15T05:04:42;12.60;99.90
9837;DHT22;4957;51.412;6.724;2024-02-15T05:07:09;12.60;99.90
9837;DHT22;4957;51.412;6.724;2024-02-15T05:09:35;12.50;99.90
9837;DHT22;4957;51.412;6.724;2024-02-15T05:12:01;12.60;99.90
9837;DHT22;4957;51.412;6.724;2024-02-15T05:14:32;12.60;99.90
9837;DHT22;4957;51.412;6.724;2024-02-15T05:16:58;12.60;99.90
9837;DHT22;4957;51.412;6.724;2024-02-15T05:19:24;12.50;99.90
9837;DHT22;4957;51.412;6.724;2024-02-15T05:21:50;12.50;99.90
9837;DHT22;4957;51.412;6.724;2024-02-15T05:24:16;12.60;99.90
9837;DHT22;4957;51.412;6.724;2024-02-15T05:26:44;12.50;99.90
9837;DHT22;4957;51.412;6.724;2024-02-15T05:29:14;12.50;99.90
9837;DHT22;4957;51.412;6.724;2024-02-15T05:31:40;12.50;99.90
9837;DHT22;4957;51.412;6.724;2024-02-15T05:34:07;12.50;99.90
9837;DHT22;4957;51.412;6.724;2024-02-15T05:36:33;12.50;99.90
9837;DHT22;4957;51.412;6.724;2024-02-15T05:39:00;12.50;99.90
9837;DHT22;4957;51.412;6.724;2024-02-15T05:41:28;12.50;99.90
9837;DHT22;4957;51.412;6.724;2024-02-15T05:43:53;12.50;99.90
9837;DHT22;4957;51.412;6.724;2024-02-15T05:46:19;12.50;99.90
9837;DHT22;4957;51.412;6.724;2024-02-15T05:48:48;12.50;99.90
9837;DHT22;4957;51.412;6.724;2024-02-15T05:51:14;12.50;99.90
9837;DHT22;4957;51.412;6.724;2024-02-15T05:53:40;12.50;99.90
9837;DHT22;4957;51.412;6.724;2024-02-15T05:56:07;12.50;99.90
9837;DHT22;4957;51.412;6.724;2024-02-15T05:58:34;12.50;99.90
9837;DHT22;4957;51.412;6.724;2024-02-15T06:01:00;12.50;99.90
9837;DHT22;4957;51.412;6.724;2024-02-15T06:03:30;12.50;99.90
9837;DHT22;4957;51.412;6.724;2024-02-15T06:05:58;12.50;99.90
9837;DHT22;4957;51.412;6.724;2024-02-15T06:08:30;12.50;99.90
9837;DHT22;4957;51.412;6.724;2024-02-15T06:10:56;12.50;99.90
9837;DHT22;4957;51.412;6.724;2024-02-15T06:13:25;12.50;99.90
9837;DHT22;4957;51.412;6.724;2024-02-15T06:15:52;12.50;99.90
9837;DHT22;4957;51.412;6.724;2024-02-15T06:18:21;12.50;99.90
9837;DHT22;4957;51.412;6.724;2024-02-15T06:20:49;12.50;99.90
9837;DHT22;4957;51.412;6.724;2024-02-15T06:23:19;12.50;99.90
9837;DHT22;4957;51.412;6.724;2024-02-15T06:25:46;12.50;99.90
9837;DHT22;4957;51.412;6.724;2024-02-15T06:28:15;12.50;99.90
9837;DHT22;4957;51.412;6.724;2024-02-15T06:30:59;12.50;99.90
9837;DHT22;4957;51.412;6.724;2024-02-15T06:33:43;12.50;99.90
9837;DHT22;4957;51.412;6.724;2024-02-15T06:36:27;12.50;99.90
9837;DHT22;4957;51.412;6.724;2024-02-15T06:39:11;12.50;99.90
9837;DHT22;4957;51.412;6.724;2024-02-15T06:41:55;12.50;99.90
9837;DHT22;4957;51.412;6.724;2024-02-15T06:44:22;12.50;99.90
9837;DHT22;4957;51.412;6.724;2024-02-15T06:46:49;12.50;99.90
9837;DHT22;4957;51.412;6.724;2024-02-15T06:49:15;12.50;99.90
9837;DHT22;4957;51.412;6.724;2024-02-15T06:51:42;12.50;99.90
9837;DHT22;4957;51.412;6.724;2024-02-15T06:54:10;12.50;99.90
9837;DHT22;4957;51.412;6.724;2024-02-15T06:56:39;12.50;99.90
9837;DHT22;4957;51.412;6.724;2024-02-15T06:59:05;12.50;99.90
9837;DHT22;4957;51.412;6.724;2024-02-15T07:01:32;12.50;99.90
9837;DHT22;4957;51.412;6.724;2024-02-15T07:04:00;12.50;99.90
9837;DHT22;4957;51.412;6.724;2024-02-15T07:06:26;12.50;99.90
9837;DHT22;4957;51.412;6.724;2024-02-15T07:08:52;12.50;99.90
9837;DHT22;4957;51.412;6.724;2024-02-15T07:11:20;12.50;99.90
9837;DHT22;4957;51.412;6.724;2024-02-15T07:13:47;12.50;99.90
9837;DHT22;4957;51.412;6.724;2024-02-15T07:16:12;12.50;99.90
9837;DHT22;4957;51.412;6.724;2024-02-15T07:18:40;12.50;99.90
9837;DHT22;4957;51.412;6.724;2024-02-15T07:21:06;12.50;99.90
9837;DHT22;4957;51.412;6.724;2024-02-15T07:23:36;12.50;99.90
9837;DHT22;4957;51.412;6.724;2024-02-15T07:26:04;12.50;99.90
9837;DHT22;4957;51.412;6.724;2024-02-15T07:28:30;12.50;99.90
9837;DHT22;4957;51.412;6.724;2024-02-15T07:30:56;12.50;99.90
9837;DHT22;4957;51.412;6.724;2024-02-15T07:33:22;12.50;99.90
9837;DHT22;4957;51.412;6.724;2024-02-15T07:35:49;12.50;99.90
9837;DHT22;4957;51.412;6.724;2024-02-15T07:38:19;12.50;99.90
9837;DHT22;4957;51.412;6.724;2024-02-15T07:40:51;12.50;99.90
9837;DHT22;4957;51.412;6.724;2024-02-15T07:43:19;12.50;99.90
9837;DHT22;4957;51.412;6.724;2024-02-15T07:45:45;12.50;99.90
9837;DHT22;4957;51.412;6.724;2024-02-15T07:48:13;12.50;99.90
9837;DHT22;4957;51.412;6.724;2024-02-15T07:50:38;12.50;99.90
9837;DHT22;4957;51.412;6.724;2024-02-15T07:53:06;12.50;99.90
9837;DHT22;4957;51.412;6.724;2024-02-15T07:55:32;12.50;99.90
9837;DHT22;4957;51.412;6.724;2024-02-15T07:57:59;12.60;99.90
9837;DHT22;4957;51.412;6.724;2024-02-15T08:00:25;12.60;99.90
9837;DHT22;4957;51.412;6.724;2024-02-15T08:02:53;12.60;99.90
9837;DHT22;4957;51.412;6.724;2024-02-15T08:05:19;12.60;99.90
9837;DHT22;4957;51.412;6.724;2024-02-15T08:07:46;12.60;99.90
9837;DHT22;4957;51.412;6.724;2024-02-15T08:10:13;12.60;99.90
9837;DHT22;4957;51.412;6.724;2024-02-15T08:12:46;12.60;99.90
9837;DHT22;4957;51.412;6.724;2024-02-15T08:15:12;12.70;99.90
9837;DHT22;4957;51.412;6.724;2024-02-15T08:17:39;12.70;99.90
9837;DHT22;4957;51.412;6.724;2024-02-15T08:20:10;12.70;99.90
9837;DHT22;4957;51.412;6.724;2024-02-15T08:22:35;12.70;99.90
9837;DHT22;4957;51.412;6.724;2024-02-15T08:25:08;12.70;99.90
9837;DHT22;4957;51.412;6.724;2024-02-15T08:27:42;12.70;99.90
9837;DHT22;4957;51.412;6.724;2024-02-15T08:30:13;12.70;99.90
9837;DHT22;4957;51.412;6.724;2024-02-15T08:32:40;12.70;99.90
9837;DHT22;4957;51.412;6.724;2024-02-15T08:35:10;12.70;99.90
9837;DHT22;4957;51.412;6.724;2024-02-15T08:37:37;12.70;99.90
9837;DHT22;4957;51.412;6.724;2024-02-15T08:40:05;12.70;99.90
9837;DHT22;4957;51.412;6.724;2024-02-15T08:42:38;12.70;99.90
9837;DHT22;4957;51.412;6.724;2024-02-15T08:45:07;12.70;99.90
9837;DHT22;4957;51.412;6.724;2024-02-15T08:47:36;12.70;99.90
9837;DHT22;4957;51.412;6.724;2024-02-15T08:50:04;12.70;99.90
9837;DHT22;4957;51.412;6.724;2024-02-15T08:52:30;12.70;99.90
9837;DHT22;4957;51.412;6.724;2024-02-15T08:54:56;12.80;99.90
9837;DHT22;4957;51.412;6.724;2024-02-15T08:57:23;12.80;99.90
9837;DHT22;4957;51.412;6.724;2024-02-15T08:59:49;12.80;99.90
9837;DHT22;4957;51.412;6.724;2024-02-15T09:02:17;12.80;99.90
9837;DHT22;4957;51.412;6.724;2024-02-15T09:04:43;12.80;99.90
9837;DHT22;4957;51.412;6.724;2024-02-15T09:07:09;12.80;99.90
9837;DHT22;4957;51.412;6.724;2024-02-15T09:09:35;12.80;99.90
9837;DHT22;4957;51.412;6.724;2024-02-15T09:12:05;12.90;99.90
9837;DHT22;4957;51.412;6.724;2024-02-15T09:14:35;12.90;99.90
9837;DHT22;4957;51.412;6.724;2024-02-15T09:17:04;12.90;99.90
9837;DHT22;4957;51.412;6.724;2024-02-15T09:19:36;12.90;99.90
9837;DHT22;4957;51.412;6.724;2024-02-15T09:22:03;12.90;99.90
9837;DHT22;4957;51.412;6.724;2024-02-15T09:24:32;12.90;99.90
9837;DHT22;4957;51.412;6.724;2024-02-15T09:27:04;12.90;99.90
9837;DHT22;4957;51.412;6.724;2024-02-15T09:29:29;12.90;99.90
9837;DHT22;4957;51.412;6.724;2024-02-15T09:31:56;13.00;99.90
9837;DHT22;4957;51.412;6.724;2024-02-15T09:34:23;12.90;99.90
9837;DHT22;4957;51.412;6.724;2024-02-15T09:36:48;13.00;99.90
9837;DHT22;4957;51.412;6.724;2024-02-15T09:39:14;13.00;99.90
9837;DHT22;4957;51.412;6.724;2024-02-15T09:41:40;13.00;99.90
9837;DHT22;4957;51.412;6.724;2024-02-15T09:44:08;13.00;99.90
9837;DHT22;4957;51.412;6.724;2024-02-15T09:46:39;13.00;99.90
9837;DHT22;4957;51.412;6.724;2024-02-15T09:49:07;13.00;99.90
9837;DHT22;4957;51.412;6.724;2024-02-15T09:51:33;13.00;99.90
9837;DHT22;4957;51.412;6.724;2024-02-15T09:54:00;13.00;99.90
9837;DHT22;4957;51.412;6.724;2024-02-15T09:56:28;13.10;99.90
9837;DHT22;4957;51.412;6.724;2024-02-15T09:58:57;13.10;99.90
9837;DHT22;4957;51.412;6.724;2024-02-15T10:01:25;13.10;99.90
9837;DHT22;4957;51.412;6.724;2024-02-15T10:03:52;13.20;99.90
9837;DHT22;4957;51.412;6.724;2024-02-15T10:06:20;13.20;99.90
9837;DHT22;4957;51.412;6.724;2024-02-15T10:08:46;13.20;99.90
9837;DHT22;4957;51.412;6.724;2024-02-15T10:11:12;13.20;99.90
9837;DHT22;4957;51.412;6.724;2024-02-15T10:13:39;13.30;99.90
9837;DHT22;4957;51.412;6.724;2024-02-15T10:16:15;13.30;99.90
9837;DHT22;4957;51.412;6.724;2024-02-15T10:18:42;13.40;99.90
9837;DHT22;4957;51.412;6.724;2024-02-15T10:21:07;13.40;99.90
9837;DHT22;4957;51.412;6.724;2024-02-15T10:23:33;13.50;99.90
9837;DHT22;4957;51.412;6.724;2024-02-15T10:26:00;13.50;99.90
9837;DHT22;4957;51.412;6.724;2024-02-15T10:28:27;13.50;99.90
9837;DHT22;4957;51.412;6.724;2024-02-15T10:30:54;13.50;99.90
9837;DHT22;4957;51.412;6.724;2024-02-15T10:33:26;13.60;99.90
9837;DHT22;4957;51.412;6.724;2024-02-15T10:36:10;13.60;99.90
9837;DHT22;4957;51.412;6.724;2024-02-15T10:38:37;13.60;99.90
9837;DHT22;4957;51.412;6.724;2024-02-15T10:41:04;13.60;99.90
9837;DHT22;4957;51.412;6.724;2024-02-15T10:43:31;13.70;99.90
9837;DHT22;4957;51.412;6.724;2024-02-15T10:45:58;13.70;99.90
9837;DHT22;4957;51.412;6.724;2024-02-15T10:48:24;13.70;99.90
9837;DHT22;4957;51.412;6.724;2024-02-15T10:50:51;13.70;99.90
9837;DHT22;4957;51.412;6.724;2024-02-15T10:53:24;13.80;99.90
9837;DHT22;4957;51.412;6.724;2024-02-15T10:56:15;13.80;99.90
9837;DHT22;4957;51.412;6.724;2024-02-15T10:59:19;13.80;99.90
9837;DHT22;4957;51.412;6.724;2024-02-15T11:01:50;13.90;99.90
9837;DHT22;4957;51.412;6.724;2024-02-15T11:04:20;13.90;99.90
9837;DHT22;4957;51.412;6.724;2024-02-15T11:06:51;14.00;99.90
9837;DHT22;4957;51.412;6.724;2024-02-15T11:09:18;14.00;99.90
9837;DHT22;4957;51.412;6.724;2024-02-15T11:11:45;14.00;99.90
9837;DHT22;4957;51.412;6.724;2024-02-15T11:14:31;14.00;99.90
9837;DHT22;4957;51.412;6.724;2024-02-15T11:16:58;14.00;99.90
9837;DHT22;4957;51.412;6.724;2024-02-15T11:22:01;14.10;99.90
9837;DHT22;4957;51.412;6.724;2024-02-15T11:24:34;14.20;99.90
9837;DHT22;4957;51.412;6.724;2024-02-15T11:27:05;14.30;99.90
9837;DHT22;4957;51.412;6.724;2024-02-15T11:29:51;14.30;99.90
9837;DHT22;4957;51.412;6.724;2024-02-15T11:35:08;14.40;99.90
9837;DHT22;4957;51.412;6.724;2024-02-15T11:40:20;14.50;99.90
9837;DHT22;4957;51.412;6.724;2024-02-15T11:42:51;14.50;99.90
9837;DHT22;4957;51.412;6.724;2024-02-15T11:45:19;14.60;99.90
9837;DHT22;4957;51.412;6.724;2024-02-15T11:47:50;14.60;99.90
9837;DHT22;4957;51.412;6.724;2024-02-15T11:50:18;14.60;99.90
9837;DHT22;4957;51.412;6.724;2024-02-15T11:52:48;14.70;99.90
9837;DHT22;4957;51.412;6.724;2024-02-15T11:55:21;14.80;99.90
9837;DHT22;4957;51.412;6.724;2024-02-15T11:58:01;14.80;99.90
9837;DHT22;4957;51.412;6.724;2024-02-15T12:00:37;14.80;99.90
9837;DHT22;4957;51.412;6.724;2024-02-15T12:03:22;14.80;99.90
9837;DHT22;4957;51.412;6.724;2024-02-15T12:06:06;14.80;99.90
9837;DHT22;4957;51.412;6.724;2024-02-15T12:08:54;14.90;99.90
9837;DHT22;4957;51.412;6.724;2024-02-15T12:11:39;15.00;99.90
9837;DHT22;4957;51.412;6.724;2024-02-15T12:14:23;15.00;99.90
9837;DHT22;4957;51.412;6.724;2024-02-15T12:17:12;15.00;99.90
9837;DHT22;4957;51.412;6.724;2024-02-15T12:20:00;15.10;99.90
9837;DHT22;4957;51.412;6.724;2024-02-15T12:25:07;15.20;99.90
9837;DHT22;4957;51.412;6.724;2024-02-15T12:27:41;15.20;99.90
9837;DHT22;4957;51.412;6.724;2024-02-15T12:30:16;15.30;99.90
9837;DHT22;4957;51.412;6.724;2024-02-15T12:32:52;15.30;99.90
9837;DHT22;4957;51.412;6.724;2024-02-15T12:35:22;15.40;99.90
9837;DHT22;4957;51.412;6.724;2024-02-15T12:38:02;15.40;99.90
9837;DHT22;4957;51.412;6.724;2024-02-15T12:40:33;15.40;99.90
9837;DHT22;4957;51.412;6.724;2024-02-15T12:42:59;15.50;99.90
9837;DHT22;4957;51.412;6.724;2024-02-15T12:45:31;15.50;99.90
9837;DHT22;4957;51.412;6.724;2024-02-15T12:47:57;15.60;99.90
9837;DHT22;4957;51.412;6.724;2024-02-15T12:50:27;15.60;99.90
9837;DHT22;4957;51.412;6.724;2024-02-15T12:52:54;15.60;99.90
9837;DHT22;4957;51.412;6.724;2024-02-15T12:55:24;15.60;99.90
9837;DHT22;4957;51.412;6.724;2024-02-15T12:57:52;15.70;99.90
9837;DHT22;4957;51.412;6.724;2024-02-15T13:00:27;15.70;99.90
9837;DHT22;4957;51.412;6.724;2024-02-15T13:03:03;15.70;99.90
9837;DHT22;4957;51.412;6.724;2024-02-15T13:05:30;15.80;99.90
9837;DHT22;4957;51.412;6.724;2024-02-15T13:07:58;15.80;99.90
9837;DHT22;4957;51.412;6.724;2024-02-15T13:10:24;15.80;99.90
9837;DHT22;4957;51.412;6.724;2024-02-15T13:12:52;15.90;99.90
9837;DHT22;4957;51.412;6.724;2024-02-15T13:15:18;15.90;99.90
9837;DHT22;4957;51.412;6.724;2024-02-15T13:17:50;16.00;99.90
9837;DHT22;4957;51.412;6.724;2024-02-15T13:20:19;16.00;99.90
9837;DHT22;4957;51.412;6.724;2024-02-15T13:22:53;16.00;99.90
9837;DHT22;4957;51.412;6.724;2024-02-15T13:25:22;16.00;99.90
9837;DHT22;4957;51.412;6.724;2024-02-15T13:27:48;16.00;99.90
9837;DHT22;4957;51.412;6.724;2024-02-15T13:30:14;16.10;99.90
9837;DHT22;4957;51.412;6.724;2024-02-15T13:32:40;16.10;99.90
9837;DHT22;4957;51.412;6.724;2024-02-15T13:35:09;16.00;99.90
9837;DHT22;4957;51.412;6.724;2024-02-15T13:37:48;16.10;99.90
9837;DHT22;4957;51.412;6.724;2024-02-15T13:40:14;16.10;99.90
9837;DHT22;4957;51.412;6.724;2024-02-15T13:42:44;16.10;99.90
9837;DHT22;4957;51.412;6.724;2024-02-15T13:45:26;16.10;99.90
9837;DHT22;4957;51.412;6.724;2024-02-15T13:47:56;16.20;99.90
9837;DHT22;4957;51.412;6.724;2024-02-15T13:50:23;16.20;99.90
9837;DHT22;4957;51.412;6.724;2024-02-15T13:52:49;16.20;99.90
9837;DHT22;4957;51.412;6.724;2024-02-15T13:55:18;16.20;99.90
9837;DHT22;4957;51.412;6.724;2024-02-15T13:57:46;16.20;99.90
9837;DHT22;4957;51.412;6.724;2024-02-15T14:00:16;16.20;99.90
9837;DHT22;4957;51.412;6.724;2024-02-15T14:02:51;16.20;99.90
9837;DHT22;4957;51.412;6.724;2024-02-15T14:05:19;16.30;99.90
9837;DHT22;4957;51.412;6.724;2024-02-15T14:07:49;16.30;99.90
9837;DHT22;4957;51.412;6.724;2024-02-15T14:10:16;16.30;99.90
9837;DHT22;4957;51.412;6.724;2024-02-15T14:12:45;16.40;99.90
9837;DHT22;4957;51.412;6.724;2024-02-15T14:15:11;16.40;99.90
9837;DHT22;4957;51.412;6.724;2024-02-15T14:17:37;16.40;99.90
9837;DHT22;4957;51.412;6.724;2024-02-15T14:20:04;16.50;99.90
9837;DHT22;4957;51.412;6.724;2024-02-15T14:22:34;16.60;99.90
9837;DHT22;4957;51.412;6.724;2024-02-15T14:25:01;16.60;99.90
9837;DHT22;4957;51.412;6.724;2024-02-15T14:27:26;16.60;99.90
9837;DHT22;4957;51.412;6.724;2024-02-15T14:29:52;16.60;99.90
9837;DHT22;4957;51.412;6.724;2024-02-15T14:32:36;16.60;99.90
9837;DHT22;4957;51.412;6.724;2024-02-15T14:35:20;16.60;99.90
9837;DHT22;4957;51.412;6.724;2024-02-15T14:37:47;16.60;99.90
9837;DHT22;4957;51.412;6.724;2024-02-15T14:40:13;16.70;99.90
9837;DHT22;4957;51.412;6.724;2024-02-15T14:42:42;16.70;99.90
9837;DHT22;4957;51.412;6.724;2024-02-15T14:45:11;16.70;99.90
9837;DHT22;4957;51.412;6.724;2024-02-15T14:47:37;16.70;99.90
9837;DHT22;4957;51.412;6.724;2024-02-15T14:52:43;16.70;99.90
9837;DHT22;4957;51.412;6.724;2024-02-15T14:55:09;16.70;99.90
9837;DHT22;4957;51.412;6.724;2024-02-15T14:57:36;16.70;99.90
9837;DHT22;4957;51.412;6.724;2024-02-15T15:00:06;16.70;99.90
9837;DHT22;4957;51.412;6.724;2024-02-15T15:02:44;16.70;99.90
9837;DHT22;4957;51.412;6.724;2024-02-15T15:05:15;16.70;99.90
9837;DHT22;4957;51.412;6.724;2024-02-15T15:08:00;16.70;99.90
9837;DHT22;4957;51.412;6.724;2024-02-15T15:10:48;16.70;99.90
9837;DHT22;4957;51.412;6.724;2024-02-15T15:13:33;16.60;99.90
9837;DHT22;4957;51.412;6.724;2024-02-15T15:16:00;16.60;99.90
9837;DHT22;4957;51.412;6.724;2024-02-15T15:18:26;16.60;99.90
9837;DHT22;4957;51.412;6.724;2024-02-15T15:20:52;16.60;99.90
9837;DHT22;4957;51.412;6.724;2024-02-15T15:23:17;16.60;99.90
9837;DHT22;4957;51.412;6.724;2024-02-15T15:25:43;16.50;99.90
9837;DHT22;4957;51.412;6.724;2024-02-15T15:28:09;16.50;99.90
9837;DHT22;4957;51.412;6.724;2024-02-15T15:30:35;16.50;99.90
9837;DHT22;4957;51.412;6.724;2024-02-15T15:33:02;16.50;99.90
9837;DHT22;4957;51.412;6.724;2024-02-15T15:35:29;16.40;99.90
9837;DHT22;4957;51.412;6.724;2024-02-15T15:37:56;16.40;99.90
9837;DHT22;4957;51.412;6.724;2024-02-15T15:40:23;16.40;99.90
9837;DHT22;4957;51.412;6.724;2024-02-15T15:42:49;16.40;99.90
9837;DHT22;4957;51.412;6.724;2024-02-15T15:45:15;16.40;99.90
9837;DHT22;4957;51.412;6.724;2024-02-15T15:47:41;16.40;99.90
9837;DHT22;4957;51.412;6.724;2024-02-15T15:50:07;16.40;99.90
9837;DHT22;4957;51.412;6.724;2024-02-15T15:52:33;16.30;99.90
9837;DHT22;4957;51.412;6.724;2024-02-15T15:55:00;16.30;99.90
9837;DHT22;4957;51.412;6.724;2024-02-15T15:57:25;16.30;99.90
9837;DHT22;4957;51.412;6.724;2024-02-15T15:59:51;16.20;99.90
9837;DHT22;4957;51.412;6.724;2024-02-15T16:02:17;16.20;99.90
9837;DHT22;4957;51.412;6.724;2024-02-15T16:04:47;16.20;99.90
9837;DHT22;4957;51.412;6.724;2024-02-15T16:07:13;16.20;99.90
9837;DHT22;4957;51.412;6.724;2024-02-15T16:09:40;16.10;99.90
9837;DHT22;4957;51.412;6.724;2024-02-15T16:12:10;16.10;99.90
9837;DHT22;4957;51.412;6.724;2024-02-15T16:14:42;16.10;99.90
9837;DHT22;4957;51.412;6.724;2024-02-15T16:17:11;16.10;99.90
9837;DHT22;4957;51.412;6.724;2024-02-15T16:19:36;16.00;99.90
9837;DHT22;4957;51.412;6.724;2024-02-15T16:22:02;16.00;99.90
9837;DHT22;4957;51.412;6.724;2024-02-15T16:24:29;16.00;99.90